createdAt,value
2019-04-11T00:01:08.079Z,8.45
2019-04-11T00:02:16.439Z,11.22
2019-04-11T00:03:23.217Z,9.07
2019-04-11T00:04:30.308Z,7.45
2019-04-11T00:05:37.155Z,8.35
2019-04-11T00:06:44.217Z,7.62
2019-04-11T00:07:52.215Z,8.40
2019-04-11T00:08:59.089Z,9.28
2019-04-11T00:10:08.214Z,11.60
2019-04-11T00:11:15.157Z,9.10
2019-04-11T00:12:22.187Z,8.33
2019-04-11T00:13:31.567Z,9.25
2019-04-11T00:14:38.117Z,8.65
2019-04-11T00:15:45.650Z,10.63
2019-04-11T00:16:53.353Z,7.50
2019-04-11T00:18:00.693Z,10.43
2019-04-11T00:19:09.328Z,8.78
2019-04-11T00:20:16.344Z,8.48
2019-04-11T00:21:24.497Z,8.95
2019-04-11T00:22:31.398Z,8.90
2019-04-11T00:23:38.614Z,9.13
2019-04-11T00:24:45.538Z,7.13
2019-04-11T00:25:52.655Z,8.03
2019-04-11T00:27:00.379Z,10.27
2019-04-11T00:28:07.853Z,6.58
2019-04-11T00:29:14.604Z,9.60
2019-04-11T00:30:22.363Z,10.30
2019-04-11T00:31:30.573Z,8.35
2019-04-11T00:32:37.991Z,8.08
2019-04-11T00:33:46.560Z,7.70
2019-04-11T00:34:53.867Z,10.43
2019-04-11T00:36:00.629Z,6.40
2019-04-11T00:37:08.570Z,10.08
2019-04-11T00:38:15.995Z,8.48
2019-04-11T00:39:23.657Z,10.03
2019-04-11T00:40:30.850Z,9.28
2019-04-11T00:41:38.322Z,12.53
2019-04-11T00:42:45.177Z,7.78
2019-04-11T00:43:52.584Z,8.53
2019-04-11T00:44:59.460Z,7.28
2019-04-11T00:46:07.791Z,8.00
2019-04-11T00:47:15.118Z,15.18
2019-04-11T00:48:22.004Z,13.28
2019-04-11T00:49:28.748Z,9.30
2019-04-11T00:50:37.118Z,8.73
2019-04-11T00:51:44.449Z,6.62
2019-04-11T00:52:51.720Z,10.48
2019-04-11T00:53:58.558Z,10.78
2019-04-11T00:55:05.531Z,8.70
2019-04-11T00:56:12.681Z,11.60
2019-04-11T00:57:20.988Z,8.55
2019-04-11T00:58:27.883Z,11.35
2019-04-11T00:59:34.616Z,8.53
2019-04-11T01:00:42.897Z,11.90
2019-04-11T01:01:50.089Z,8.93
2019-04-11T01:02:57.946Z,11.10
2019-04-11T01:04:04.955Z,7.93
2019-04-11T01:05:12.931Z,8.23
2019-04-11T01:06:20.464Z,9.45
2019-04-11T01:07:27.415Z,9.45
2019-04-11T01:08:34.178Z,8.95
2019-04-11T01:09:42.221Z,10.10
2019-04-11T01:10:49.767Z,9.88
2019-04-11T01:11:58.392Z,16.27
2019-04-11T01:13:07.078Z,10.03
2019-04-11T01:14:15.268Z,11.18
2019-04-11T01:15:24.027Z,10.28
2019-04-11T01:16:40.952Z,7.45
2019-04-11T01:17:47.803Z,11.03
2019-04-11T01:18:54.525Z,14.80
2019-04-11T01:20:01.266Z,10.13
2019-04-11T01:21:08.255Z,10.38
2019-04-11T01:22:16.133Z,10.05
2019-04-11T01:23:23.400Z,9.33
2019-04-11T01:24:30.123Z,12.30
2019-04-11T01:25:36.937Z,10.40
2019-04-11T01:26:43.898Z,10.40
2019-04-11T01:27:51.050Z,9.98
2019-04-11T01:28:58.776Z,8.25
2019-04-11T01:30:08.131Z,10.10
2019-04-11T01:31:17.701Z,8.10
2019-04-11T01:32:24.510Z,11.03
2019-04-11T01:33:31.811Z,8.23
2019-04-11T01:34:39.015Z,10.03
2019-04-11T01:35:45.790Z,9.08
2019-04-11T01:36:53.424Z,7.03
2019-04-11T01:38:00.541Z,12.37
2019-04-11T01:39:41.734Z,9.78
2019-04-11T01:40:48.481Z,10.63
2019-04-11T01:41:55.855Z,13.83
2019-04-11T01:43:03.917Z,9.55
2019-04-11T01:44:10.796Z,9.03
2019-04-11T01:45:19.329Z,8.43
2019-04-11T01:46:26.435Z,8.95
2019-04-11T01:48:01.591Z,9.10
2019-04-11T01:49:16.872Z,15.13
2019-04-11T01:50:27.174Z,14.55
2019-04-11T01:51:34.291Z,10.10
2019-04-11T01:52:42.429Z,10.90
2019-04-11T01:53:49.471Z,9.85
2019-04-11T01:54:56.456Z,9.03
2019-04-11T01:56:03.514Z,11.20
2019-04-11T01:57:10.261Z,10.55
2019-04-11T01:58:18.284Z,10.60
2019-04-11T01:59:25.556Z,14.00
2019-04-11T02:01:00.834Z,9.00
2019-04-11T02:02:19.141Z,8.30
2019-04-11T02:03:39.485Z,11.80
2019-04-11T02:04:54.393Z,9.90
2019-04-11T02:06:01.315Z,9.98
2019-04-11T02:07:08.293Z,8.80
2019-04-11T02:08:15.374Z,9.73
2019-04-11T02:09:22.414Z,8.58
2019-04-11T02:10:29.280Z,12.47
2019-04-11T02:11:37.270Z,8.35
2019-04-11T02:12:44.132Z,8.75
2019-04-11T02:13:53.355Z,8.90
2019-04-11T02:15:00.821Z,11.93
2019-04-11T02:16:08.476Z,8.55
2019-04-11T02:17:15.344Z,10.40
2019-04-11T02:18:22.109Z,10.82
2019-04-11T02:19:28.993Z,12.30
2019-04-11T02:20:36.883Z,9.10
2019-04-11T02:21:44.482Z,11.73
2019-04-11T02:23:20.131Z,28.83
2019-04-11T02:24:47.924Z,8.93
2019-04-11T02:26:07.154Z,10.80
2019-04-11T02:27:21.128Z,11.30
2019-04-11T02:28:28.815Z,13.60
2019-04-11T02:29:36.003Z,10.98
2019-04-11T02:30:48.221Z,10.60
2019-04-11T02:31:54.982Z,9.58
2019-04-11T02:33:02.312Z,11.10
2019-04-11T02:34:11.225Z,13.80
2019-04-11T02:35:28.946Z,12.25
2019-04-11T02:36:38.195Z,10.95
2019-04-11T02:37:45.839Z,9.40
2019-04-11T02:38:55.306Z,11.70
2019-04-11T02:40:03.072Z,8.30
2019-04-11T02:41:12.475Z,11.18
2019-04-11T02:42:21.270Z,9.45
2019-04-11T02:43:29.457Z,11.20
2019-04-11T02:44:52.401Z,13.35
2019-04-11T02:46:01.714Z,9.73
2019-04-11T02:47:03.341Z,12.60
2019-04-11T02:48:04.005Z,10.80
2019-04-11T02:49:11.565Z,9.33
2019-04-11T02:50:21.308Z,11.90
2019-04-11T02:51:28.887Z,12.37
2019-04-11T02:52:37.654Z,9.65
2019-04-11T02:53:45.289Z,16.12
2019-04-11T02:54:52.676Z,14.85
2019-04-11T02:56:01.140Z,11.20
2019-04-11T02:57:09.995Z,12.67
2019-04-11T02:58:18.541Z,14.45
2019-04-11T02:59:27.419Z,13.13
2019-04-11T03:00:36.012Z,13.40
2019-04-11T03:01:44.024Z,10.72
2019-04-11T03:02:53.157Z,10.20
2019-04-11T03:04:01.677Z,13.58
2019-04-11T03:05:10.091Z,19.92
2019-04-11T03:06:17.529Z,10.30
2019-04-11T03:07:25.216Z,16.95
2019-04-11T03:08:35.923Z,8.33
2019-04-11T03:09:41.622Z,10.03
2019-04-11T03:10:49.344Z,12.73
2019-04-11T03:11:58.937Z,14.37
2019-04-11T03:13:05.485Z,11.53
2019-04-11T03:14:14.269Z,11.83
2019-04-11T03:15:37.641Z,12.93
2019-04-11T03:16:42.894Z,10.80
2019-04-11T03:17:43.304Z,9.98
2019-04-11T03:19:08.119Z,12.10
2019-04-11T03:20:08.881Z,13.37
2019-04-11T03:21:12.843Z,15.30
2019-04-11T03:22:14.190Z,13.00
2019-04-11T03:23:23.020Z,11.87
2019-04-11T03:24:31.606Z,12.90
2019-04-11T03:25:40.589Z,13.68
2019-04-11T03:26:47.433Z,12.65
2019-04-11T03:27:54.588Z,14.45
2019-04-11T03:29:02.540Z,20.85
2019-04-11T03:30:16.157Z,13.03
2019-04-11T03:32:05.361Z,14.63
2019-04-11T03:33:18.529Z,17.47
2019-04-11T03:37:26.109Z,17.20
2019-04-11T03:38:38.604Z,14.05
2019-04-11T03:39:48.851Z,14.53
2019-04-11T03:40:50.523Z,13.03
2019-04-11T03:41:54.765Z,13.15
2019-04-11T03:43:04.285Z,16.07
2019-04-11T03:44:07.836Z,15.15
2019-04-11T03:45:25.591Z,17.55
2019-04-11T03:46:36.476Z,13.80
2019-04-11T03:47:37.578Z,13.05
2019-04-11T03:48:46.797Z,12.43
2019-04-11T03:49:51.050Z,11.33
2019-04-11T03:50:54.274Z,14.47
2019-04-11T03:52:01.167Z,15.28
2019-04-11T03:53:10.931Z,12.47
2019-04-11T03:54:17.960Z,13.75
2019-04-11T03:55:27.495Z,12.55
2019-04-11T03:56:35.066Z,14.65
2019-04-11T03:57:43.354Z,14.87
2019-04-11T03:58:50.567Z,15.90
2019-04-11T03:59:58.743Z,13.70
2019-04-11T04:01:08.667Z,15.75
2019-04-11T04:02:16.938Z,13.35
2019-04-11T04:03:24.777Z,15.95
2019-04-11T04:04:33.112Z,13.68
2019-04-11T04:05:42.047Z,15.30
2019-04-11T04:06:49.940Z,14.20
2019-04-11T04:07:58.240Z,18.52
2019-04-11T04:09:09.050Z,16.17
2019-04-11T04:10:18.410Z,13.65
2019-04-11T04:11:27.939Z,15.18
2019-04-11T04:12:35.877Z,18.73
2019-04-11T04:13:50.222Z,16.85
2019-04-11T04:15:31.379Z,18.37
2019-04-11T04:16:40.340Z,14.93
2019-04-11T04:17:52.231Z,12.47
2019-04-11T04:19:32.694Z,17.05
2019-04-11T04:20:53.376Z,16.82
2019-04-11T04:22:07.292Z,17.27
2019-04-11T04:23:31.506Z,14.37
2019-04-11T04:24:40.595Z,17.62
2019-04-11T04:25:49.250Z,20.95
2019-04-11T04:27:00.937Z,17.45
2019-04-11T04:28:07.486Z,16.00
2019-04-11T04:29:15.463Z,15.08
2019-04-11T04:30:24.537Z,20.70
2019-04-11T04:31:30.849Z,16.90
2019-04-11T04:32:38.717Z,19.55
2019-04-11T04:33:47.544Z,19.55
2019-04-11T04:34:56.230Z,21.68
2019-04-11T04:36:06.656Z,19.55
2019-04-11T04:37:14.116Z,14.93
2019-04-11T04:38:23.563Z,16.20
2019-04-11T04:39:31.447Z,17.73
2019-04-11T04:40:51.187Z,22.13
2019-04-11T04:41:58.896Z,20.17
2019-04-11T04:43:02.792Z,16.93
2019-04-11T04:44:09.229Z,16.45
2019-04-11T04:45:16.580Z,18.37
2019-04-11T04:46:39.571Z,19.82
2019-04-11T04:47:42.370Z,17.92
2019-04-11T04:48:43.222Z,19.95
2019-04-11T04:49:50.032Z,16.23
2019-04-11T04:50:57.670Z,21.35
2019-04-11T04:52:06.064Z,18.60
2019-04-11T04:53:15.885Z,24.43
2019-04-11T04:54:24.105Z,18.48
2019-04-11T04:55:32.649Z,17.60
2019-04-11T04:56:41.353Z,23.55
2019-04-11T04:57:51.093Z,18.67
2019-04-11T04:59:02.579Z,18.17
2019-04-11T05:00:11.827Z,29.85
2019-04-11T05:01:23.769Z,23.35
2019-04-11T05:02:32.706Z,20.50
2019-04-11T05:03:42.437Z,26.10
2019-04-11T05:04:52.158Z,21.17
2019-04-11T05:06:01.184Z,23.52
2019-04-11T05:07:09.650Z,19.70
2019-04-11T05:08:18.453Z,23.10
2019-04-11T05:09:25.672Z,23.57
2019-04-11T05:10:32.795Z,18.50
2019-04-11T05:11:40.019Z,24.30
2019-04-11T05:12:46.821Z,21.87
2019-04-11T05:13:54.529Z,19.75
2019-04-11T05:15:01.660Z,19.27
2019-04-11T05:16:16.645Z,19.25
2019-04-11T05:17:17.183Z,17.80
2019-04-11T05:18:24.079Z,18.80
2019-04-11T05:19:31.908Z,14.00
2019-04-11T05:20:39.105Z,18.60
2019-04-11T05:21:47.743Z,20.73
2019-04-11T05:22:55.904Z,24.25
2019-04-11T05:24:04.063Z,21.00
2019-04-11T05:25:11.070Z,22.40
2019-04-11T05:26:19.358Z,19.52
2019-04-11T05:27:26.209Z,22.17
2019-04-11T05:28:32.944Z,20.20
2019-04-11T05:29:39.801Z,20.65
2019-04-11T05:30:46.584Z,38.70
2019-04-11T05:31:54.616Z,19.73
2019-04-11T05:33:01.813Z,24.03
2019-04-11T05:34:09.958Z,18.35
2019-04-11T05:35:16.825Z,27.90
2019-04-11T05:36:24.723Z,20.57
2019-04-11T05:37:31.540Z,18.05
2019-04-11T05:38:38.293Z,23.52
2019-04-11T05:39:45.047Z,24.52
2019-04-11T05:40:52.391Z,22.58
2019-04-11T05:41:59.717Z,21.90
2019-04-11T05:43:06.596Z,19.62
2019-04-11T05:44:14.604Z,21.27
2019-04-11T05:45:24.419Z,20.23
2019-04-11T05:46:35.387Z,24.65
2019-04-11T05:47:39.328Z,24.32
2019-04-11T05:49:14.344Z,22.05
2019-04-11T05:50:28.865Z,24.30
2019-04-11T05:51:40.956Z,26.80
2019-04-11T05:52:44.326Z,20.70
2019-04-11T05:53:54.467Z,19.87
2019-04-11T05:55:04.942Z,28.77
2019-04-11T05:56:13.887Z,24.45
2019-04-11T05:57:23.813Z,41.45
2019-04-11T05:58:30.365Z,21.30
2019-04-11T05:59:39.013Z,20.08
2019-04-11T06:00:59.675Z,25.07
2019-04-11T06:02:26.603Z,24.97
2019-04-11T06:03:34.312Z,20.17
2019-04-11T06:04:50.146Z,24.67
2019-04-11T06:06:11.369Z,30.95
2019-04-11T06:07:27.286Z,19.40
2019-04-11T06:08:35.601Z,18.83
2019-04-11T06:09:46.266Z,17.42
2019-04-11T06:11:21.346Z,24.30
2019-04-11T06:13:00.409Z,21.10
2019-04-11T06:14:27.010Z,17.43
2019-04-11T06:15:40.816Z,18.50
2019-04-11T06:16:53.729Z,18.98
2019-04-11T06:17:58.649Z,23.93
2019-04-11T06:19:30.665Z,20.90
2019-04-11T06:20:57.634Z,17.30
2019-04-11T06:22:06.939Z,17.07
2019-04-11T06:23:31.861Z,17.77
2019-04-11T06:24:56.506Z,19.87
2019-04-11T06:26:18.848Z,17.05
2019-04-11T06:27:45.580Z,22.42
2019-04-11T06:28:56.674Z,16.02
2019-04-11T06:30:22.050Z,21.40
2019-04-11T06:31:51.618Z,20.55
2019-04-11T06:33:14.738Z,19.63
2019-04-11T06:34:24.086Z,19.07
2019-04-11T06:35:48.788Z,20.25
2019-04-11T06:37:15.122Z,18.20
2019-04-11T06:38:44.834Z,19.67
2019-04-11T06:39:58.271Z,25.37
2019-04-11T06:41:12.481Z,20.05
2019-04-11T06:42:53.885Z,20.02
2019-04-11T06:44:21.631Z,16.50
2019-04-11T06:45:46.128Z,17.35
2019-04-11T06:47:14.993Z,17.23
2019-04-11T06:48:40.049Z,27.23
2019-04-11T06:50:09.190Z,14.30
2019-04-11T06:51:20.173Z,33.03
2019-04-11T06:52:28.635Z,16.73
2019-04-11T06:53:39.761Z,17.27
2019-04-11T06:55:04.647Z,17.53
2019-04-11T06:56:25.524Z,18.02
2019-04-11T06:57:32.697Z,16.73
2019-04-11T06:58:43.695Z,15.10
2019-04-11T06:59:50.603Z,36.38
2019-04-11T07:01:03.475Z,18.30
2019-04-11T07:02:19.397Z,18.13
2019-04-11T07:03:29.220Z,17.70
2019-04-11T07:04:38.598Z,18.87
2019-04-11T07:05:46.861Z,20.70
2019-04-11T07:06:55.884Z,17.33
2019-04-11T07:08:03.262Z,15.60
2019-04-11T07:09:20.251Z,17.63
2019-04-11T07:10:38.746Z,19.17
2019-04-11T07:11:48.871Z,18.20
2019-04-11T07:13:01.550Z,17.48
2019-04-11T07:14:18.567Z,21.97
2019-04-11T07:15:46.511Z,17.32
2019-04-11T07:17:13.421Z,17.63
2019-04-11T07:18:37.932Z,19.90
2019-04-11T07:20:02.858Z,17.23
2019-04-11T07:21:11.544Z,15.47
2019-04-11T07:22:36.837Z,16.97
2019-04-11T07:24:01.562Z,20.25
2019-04-11T07:25:26.904Z,14.00
2019-04-11T07:26:55.490Z,14.43
2019-04-11T07:28:10.000Z,14.77
2019-04-11T07:29:34.659Z,16.90
2019-04-11T07:31:19.263Z,16.70
2019-04-11T07:32:28.045Z,15.17
2019-04-11T07:33:53.887Z,16.23
2019-04-11T07:35:22.428Z,15.05
2019-04-11T07:36:46.758Z,12.40
2019-04-11T07:37:55.746Z,18.70
2019-04-11T07:39:12.881Z,17.83
2019-04-11T07:40:58.909Z,16.07
2019-04-11T07:42:24.001Z,15.37
2019-04-11T07:43:33.641Z,17.07
2019-04-11T07:44:40.842Z,12.30
2019-04-11T07:46:19.255Z,15.32
2019-04-11T07:47:37.777Z,15.40
2019-04-11T07:48:44.734Z,14.77
2019-04-11T07:49:54.933Z,19.10
2019-04-11T07:51:13.166Z,19.43
2019-04-11T07:52:20.502Z,11.63
2019-04-11T07:53:28.459Z,10.47
2019-04-11T07:54:36.926Z,11.30
2019-04-11T07:55:46.520Z,12.83
2019-04-11T07:57:15.112Z,12.73
2019-04-11T07:58:28.610Z,13.57
2019-04-11T08:00:00.658Z,12.07
2019-04-11T08:01:33.897Z,13.90
2019-04-11T08:02:59.594Z,9.70
2019-04-11T08:04:24.019Z,12.83
2019-04-11T08:05:59.090Z,11.87
2019-04-11T08:07:17.869Z,13.60
2019-04-11T08:08:37.124Z,13.57
2019-04-11T08:09:48.530Z,11.07
2019-04-11T08:11:02.422Z,12.70
2019-04-11T08:12:12.880Z,12.30
2019-04-11T08:13:28.341Z,11.77
2019-04-11T08:15:03.424Z,10.40
2019-04-11T08:16:28.968Z,14.13
2019-04-11T08:17:42.953Z,8.40
2019-04-11T08:19:07.609Z,15.80
2019-04-11T08:20:33.264Z,10.43
2019-04-11T08:21:58.736Z,16.73
2019-04-11T08:23:07.799Z,13.00
2019-04-11T08:24:20.617Z,13.63
2019-04-11T08:25:47.163Z,15.00
2019-04-11T08:27:16.005Z,11.20
2019-04-11T08:28:23.348Z,14.87
2019-04-11T08:29:30.565Z,10.50
2019-04-11T08:30:55.215Z,11.13
2019-04-11T08:32:25.450Z,9.80
2019-04-11T08:33:33.409Z,13.97
2019-04-11T08:34:47.963Z,11.63
2019-04-11T08:36:29.583Z,8.57
2019-04-11T08:37:51.864Z,13.70
2019-04-11T08:39:00.601Z,11.07
2019-04-11T08:40:09.428Z,8.30
2019-04-11T08:41:34.304Z,9.77
2019-04-11T08:42:54.810Z,10.13
2019-04-11T08:44:10.527Z,13.37
2019-04-11T08:45:17.965Z,9.97
2019-04-11T08:46:33.032Z,9.73
2019-04-11T08:47:51.269Z,11.70
2019-04-11T08:48:57.425Z,9.30
2019-04-11T08:50:06.099Z,11.47
2019-04-11T08:51:13.327Z,8.73
2019-04-11T08:52:42.351Z,10.80
2019-04-11T08:54:11.549Z,10.80
2019-04-11T08:55:29.310Z,8.97
2019-04-11T08:56:37.362Z,9.33
2019-04-11T08:57:47.679Z,11.03
2019-04-11T08:59:31.840Z,12.23
2019-04-11T09:00:46.537Z,10.77
2019-04-11T09:01:53.971Z,12.07
2019-04-11T09:03:11.861Z,9.47
2019-04-11T09:04:46.411Z,11.60
2019-04-11T09:06:04.304Z,10.67
2019-04-11T09:07:11.839Z,15.50
2019-04-11T09:08:44.825Z,12.67
2019-04-11T09:10:19.996Z,12.90
2019-04-11T09:11:41.025Z,10.20
2019-04-11T09:12:58.560Z,10.33
2019-04-11T09:14:16.293Z,10.97
2019-04-11T09:15:41.215Z,10.90
2019-04-11T09:17:07.312Z,9.17
2019-04-11T09:18:15.300Z,9.13
2019-04-11T09:19:47.459Z,10.30
2019-04-11T09:21:26.293Z,9.93
2019-04-11T09:22:41.571Z,8.60
2019-04-11T09:23:48.736Z,11.63
2019-04-11T09:25:30.382Z,9.97
2019-04-11T09:26:56.194Z,10.03
2019-04-11T09:28:21.913Z,8.73
2019-04-11T09:29:32.329Z,6.93
2019-04-11T09:30:53.239Z,10.90
2019-04-11T09:32:18.167Z,12.63
2019-04-11T09:33:42.567Z,11.07
2019-04-11T09:35:06.778Z,10.53
2019-04-11T09:36:35.168Z,7.80
2019-04-11T09:37:44.573Z,10.03
2019-04-11T09:38:52.850Z,13.13
2019-04-11T09:40:07.813Z,11.13
2019-04-11T09:41:33.374Z,11.10
2019-04-11T09:42:49.783Z,14.80
2019-04-11T09:43:58.189Z,10.77
2019-04-11T09:45:26.027Z,27.63
2019-04-11T09:46:44.334Z,9.40
2019-04-11T09:48:19.892Z,10.70
2019-04-11T09:49:36.085Z,19.23
2019-04-11T09:51:00.864Z,15.00
2019-04-11T09:52:16.300Z,9.90
2019-04-11T09:53:26.145Z,9.40
2019-04-11T09:54:40.046Z,8.93
2019-04-11T09:55:56.313Z,12.03
2019-04-11T09:57:24.886Z,7.70
2019-04-11T09:58:32.150Z,9.70
2019-04-11T09:59:56.786Z,7.13
2019-04-11T10:01:35.099Z,9.40
2019-04-11T10:03:04.258Z,8.23
2019-04-11T10:04:11.661Z,7.20
2019-04-11T10:05:22.236Z,10.27
2019-04-11T10:07:03.441Z,6.13
2019-04-11T10:08:14.888Z,8.63
2019-04-11T10:09:24.058Z,9.00
2019-04-11T10:10:40.742Z,7.60
2019-04-11T10:12:15.899Z,6.80
2019-04-11T10:13:31.016Z,6.37
2019-04-11T10:14:39.746Z,7.20
2019-04-11T10:16:01.913Z,7.83
2019-04-11T10:17:46.370Z,8.60
2019-04-11T10:19:09.991Z,6.00
2019-04-11T10:20:18.415Z,6.53
2019-04-11T10:21:25.933Z,7.47
2019-04-11T10:22:52.611Z,11.40
2019-04-11T10:24:24.326Z,7.17
2019-04-11T10:25:39.354Z,6.40
2019-04-11T10:26:52.087Z,7.47
2019-04-11T10:28:30.467Z,8.90
2019-04-11T10:30:08.666Z,8.97
2019-04-11T10:31:20.343Z,8.90
2019-04-11T10:32:30.853Z,7.90
2019-04-11T10:34:09.097Z,8.40
2019-04-11T10:35:50.392Z,6.57
2019-04-11T10:37:03.493Z,6.67
2019-04-11T10:38:10.479Z,10.70
2019-04-11T10:39:54.555Z,6.20
2019-04-11T10:41:09.931Z,6.20
2019-04-11T10:42:18.057Z,6.97
2019-04-11T10:43:24.936Z,7.70
2019-04-11T10:44:56.352Z,9.40
2019-04-11T10:46:28.099Z,11.17
2019-04-11T10:47:35.010Z,11.67
2019-04-11T10:48:50.670Z,10.77
2019-04-11T10:50:17.535Z,7.63
2019-04-11T10:51:31.862Z,6.83
2019-04-11T10:52:42.493Z,8.03
2019-04-11T10:53:51.246Z,12.60
2019-04-11T10:55:09.890Z,10.57
2019-04-11T10:56:43.280Z,7.87
2019-04-11T10:58:02.540Z,6.90
2019-04-11T10:59:10.173Z,18.70
2019-04-11T11:00:29.416Z,15.50
2019-04-11T11:01:53.893Z,7.80
2019-04-11T11:03:09.514Z,8.97
2019-04-11T11:04:28.051Z,10.70
2019-04-11T11:05:36.235Z,6.57
2019-04-11T11:06:44.926Z,7.87
2019-04-11T11:07:53.149Z,7.63
2019-04-11T11:09:15.231Z,7.00
2019-04-11T11:10:25.783Z,9.10
2019-04-11T11:11:37.210Z,6.90
2019-04-11T11:13:10.069Z,7.67
2019-04-11T11:14:53.731Z,9.93
2019-04-11T11:16:00.540Z,11.40
2019-04-11T11:17:46.122Z,7.53
2019-04-11T11:19:25.956Z,7.80
2019-04-11T11:20:38.544Z,8.20
2019-04-11T11:21:42.998Z,8.87
2019-04-11T11:23:10.927Z,8.13
2019-04-11T11:24:24.193Z,8.50
2019-04-11T11:25:49.778Z,6.37
2019-04-11T11:26:58.236Z,7.10
2019-04-11T11:28:05.259Z,7.80
2019-04-11T11:29:47.542Z,8.63
2019-04-11T11:31:07.801Z,8.70
2019-04-11T11:32:34.191Z,9.03
2019-04-11T11:33:42.691Z,11.80
2019-04-11T11:35:26.066Z,6.00
2019-04-11T11:36:48.059Z,11.03
2019-04-11T11:38:04.059Z,10.93
2019-04-11T11:39:20.710Z,7.47
2019-04-11T11:40:56.940Z,9.47
2019-04-11T11:42:38.646Z,8.57
2019-04-11T11:43:45.887Z,8.03
2019-04-11T11:44:55.355Z,14.50
2019-04-11T11:46:25.496Z,10.73
2019-04-11T11:47:46.335Z,10.73
2019-04-11T11:49:03.005Z,6.73
2019-04-11T11:50:16.382Z,8.30
2019-04-11T11:51:31.146Z,7.33
2019-04-11T11:53:08.824Z,10.17
2019-04-11T11:54:19.796Z,9.90
2019-04-11T11:55:29.827Z,6.83
2019-04-11T11:56:38.168Z,11.13
2019-04-11T11:57:53.112Z,8.53
2019-04-11T11:59:19.694Z,9.93
2019-04-11T12:00:30.153Z,9.07
2019-04-11T12:01:43.044Z,7.27
2019-04-11T12:03:09.218Z,9.50
2019-04-11T12:04:44.333Z,9.93
2019-04-11T12:05:54.716Z,8.20
2019-04-11T12:07:06.024Z,7.40
2019-04-11T12:08:24.222Z,6.33
2019-04-11T12:09:49.028Z,7.87
2019-04-11T12:11:01.776Z,7.53
2019-04-11T12:12:14.218Z,10.23
2019-04-11T12:13:45.889Z,9.73
2019-04-11T12:15:14.179Z,10.33
2019-04-11T12:16:37.477Z,9.00
2019-04-11T12:18:09.564Z,9.27
2019-04-11T12:19:41.256Z,9.20
2019-04-11T12:20:44.848Z,9.33
2019-04-11T12:21:53.631Z,8.47
2019-04-11T12:23:04.727Z,9.87
2019-04-11T12:24:30.718Z,9.83
2019-04-11T12:25:42.497Z,8.50
2019-04-11T12:27:00.096Z,8.30
2019-04-11T12:28:25.691Z,9.63
2019-04-11T12:29:48.784Z,9.67
2019-04-11T12:31:01.356Z,8.37
2019-04-11T12:32:08.311Z,8.70
2019-04-11T12:33:35.360Z,7.93
2019-04-11T12:34:57.763Z,9.97
2019-04-11T12:36:08.196Z,7.57
2019-04-11T12:37:25.303Z,7.53
2019-04-11T12:38:54.908Z,8.23
2019-04-11T12:40:27.027Z,8.17
2019-04-11T12:41:52.601Z,15.37
2019-04-11T12:43:01.036Z,22.00
2019-04-11T12:44:30.400Z,7.13
2019-04-11T12:46:05.409Z,11.70
2019-04-11T12:47:38.225Z,9.20
2019-04-11T12:48:46.846Z,10.13
2019-04-11T12:50:30.647Z,9.40
2019-04-11T12:51:55.069Z,9.47
2019-04-11T12:53:10.644Z,7.80
2019-04-11T12:54:24.238Z,8.73
2019-04-11T12:55:37.467Z,10.70
2019-04-11T12:57:03.217Z,7.10
2019-04-11T12:58:24.164Z,9.13
2019-04-11T12:59:31.414Z,11.70
2019-04-11T13:00:58.618Z,11.90
2019-04-11T13:02:40.008Z,11.80
2019-04-11T13:04:24.140Z,7.80
2019-04-11T13:05:32.282Z,7.30
2019-04-11T13:06:52.400Z,7.57
2019-04-11T13:08:18.423Z,6.93
2019-04-11T13:09:53.317Z,6.10
2019-04-11T13:11:00.491Z,7.77
2019-04-11T13:12:07.862Z,8.77
2019-04-11T13:13:26.894Z,9.10
2019-04-11T13:14:40.600Z,8.07
2019-04-11T13:15:51.565Z,7.03
2019-04-11T13:16:59.267Z,11.30
2019-04-11T13:18:43.859Z,9.20
2019-04-11T13:20:21.831Z,6.87
2019-04-11T13:21:50.480Z,13.17
2019-04-11T13:23:00.659Z,9.10
2019-04-11T13:24:25.495Z,7.43
2019-04-11T13:25:49.691Z,12.63
2019-04-11T13:27:16.695Z,8.77
2019-04-11T13:28:23.469Z,7.47
2019-04-11T13:29:49.908Z,6.60
2019-04-11T13:31:14.003Z,7.43
2019-04-11T13:32:36.613Z,9.93
2019-04-11T13:33:43.755Z,9.30
2019-04-11T13:34:51.757Z,11.23
2019-04-11T13:36:23.425Z,8.23
2019-04-11T13:37:47.641Z,7.27
2019-04-11T13:38:54.387Z,6.50
2019-04-11T13:40:20.494Z,7.57
2019-04-11T13:41:55.519Z,8.63
2019-04-11T13:43:33.223Z,9.17
2019-04-11T13:44:41.468Z,7.20
2019-04-11T13:46:13.156Z,6.43
2019-04-11T13:47:32.089Z,6.50
2019-04-11T13:49:01.030Z,6.20
2019-04-11T13:50:16.336Z,5.90
2019-04-11T13:51:26.820Z,7.57
2019-04-11T13:52:51.351Z,7.00
2019-04-11T13:54:30.423Z,5.23
2019-04-11T13:55:42.587Z,7.93
2019-04-11T13:57:27.062Z,7.40
2019-04-11T13:58:51.274Z,6.50
2019-04-11T14:00:15.725Z,13.70
2019-04-11T14:01:23.167Z,7.57
2019-04-11T14:02:50.950Z,8.03
2019-04-11T14:04:08.907Z,10.23
2019-04-11T14:05:16.329Z,9.63
2019-04-11T14:06:25.500Z,8.97
2019-04-11T14:07:32.407Z,7.20
2019-04-11T14:08:48.366Z,8.20
2019-04-11T14:09:55.287Z,11.47
2019-04-11T14:11:10.872Z,7.00
2019-04-11T14:12:17.621Z,9.57
2019-04-11T14:13:34.589Z,6.80
2019-04-11T14:15:00.901Z,9.40
2019-04-11T14:16:12.658Z,8.97
2019-04-11T14:17:43.313Z,9.33
2019-04-11T14:19:11.650Z,14.20
2019-04-11T14:20:36.119Z,7.97
2019-04-11T14:21:44.516Z,10.37
2019-04-11T14:23:14.894Z,5.70
2019-04-11T14:24:37.152Z,9.90
2019-04-11T14:25:57.997Z,7.07
2019-04-11T14:27:08.551Z,9.97
2019-04-11T14:28:15.937Z,9.53
2019-04-11T14:29:43.750Z,6.07
2019-04-11T14:31:08.277Z,14.33
2019-04-11T14:32:27.455Z,10.00
2019-04-11T14:33:35.628Z,9.70
2019-04-11T14:35:04.956Z,7.70
2019-04-11T14:36:42.893Z,6.43
2019-04-11T14:38:08.867Z,8.53
2019-04-11T14:39:16.962Z,7.47
2019-04-11T14:40:42.883Z,8.17
2019-04-11T14:42:12.095Z,8.87
2019-04-11T14:43:25.988Z,13.10
2019-04-11T14:44:33.412Z,8.83
2019-04-11T14:45:54.988Z,8.53
2019-04-11T14:47:23.620Z,7.40
2019-04-11T14:48:40.108Z,8.47
2019-04-11T14:49:50.802Z,9.63
2019-04-11T14:51:34.958Z,7.57
2019-04-11T14:52:58.741Z,9.63
2019-04-11T14:54:11.956Z,8.13
2019-04-11T14:55:20.111Z,8.53
2019-04-11T14:56:27.206Z,6.97
2019-04-11T14:57:56.729Z,8.80
2019-04-11T14:59:31.629Z,6.90
2019-04-11T15:00:40.454Z,5.93
2019-04-11T15:01:49.419Z,8.27
2019-04-11T15:03:21.475Z,10.63
2019-04-11T15:04:45.699Z,7.00
2019-04-11T15:06:17.487Z,9.93
2019-04-11T15:07:24.234Z,7.00
2019-04-11T15:08:59.089Z,6.70
2019-04-11T15:10:34.491Z,8.83
2019-04-11T15:11:50.599Z,6.47
2019-04-11T15:12:58.032Z,5.07
2019-04-11T15:14:15.790Z,6.73
2019-04-11T15:15:31.349Z,6.30
2019-04-11T15:16:55.754Z,7.03
2019-04-11T15:18:04.083Z,6.83
2019-04-11T15:19:10.862Z,6.13
2019-04-11T15:20:54.946Z,7.63
2019-04-11T15:22:11.845Z,7.80
2019-04-11T15:23:37.684Z,7.67
2019-04-11T15:24:46.948Z,8.60
2019-04-11T15:26:12.884Z,6.10
2019-04-11T15:27:41.506Z,10.30
2019-04-11T15:29:07.086Z,6.70
2019-04-11T15:30:16.944Z,5.70
2019-04-11T15:31:42.534Z,5.60
2019-04-11T15:33:14.182Z,9.30
2019-04-11T15:34:41.578Z,6.73
2019-04-11T15:35:48.618Z,8.90
2019-04-11T15:37:17.370Z,5.90
2019-04-11T15:38:42.091Z,6.57
2019-04-11T15:40:06.388Z,9.47
2019-04-11T15:41:13.736Z,5.53
2019-04-11T15:42:31.265Z,8.90
2019-04-11T15:43:55.866Z,7.50
2019-04-11T15:45:20.079Z,6.40
2019-04-11T15:46:31.429Z,7.90
2019-04-11T15:47:41.533Z,6.10
2019-04-11T15:49:19.403Z,6.17
2019-04-11T15:50:33.690Z,6.40
2019-04-11T15:51:42.671Z,6.13
2019-04-11T15:52:54.618Z,6.77
2019-04-11T15:54:27.158Z,7.23
2019-04-11T15:55:52.764Z,11.73
2019-04-11T15:57:18.322Z,6.73
2019-04-11T15:58:28.641Z,7.73
2019-04-11T15:59:54.410Z,9.23
2019-04-11T16:01:36.124Z,5.37
2019-04-11T16:03:02.007Z,6.40
2019-04-11T16:04:23.941Z,6.53
2019-04-11T16:05:49.696Z,5.47
2019-04-11T16:07:24.831Z,7.17
2019-04-11T16:08:50.389Z,8.03
2019-04-11T16:09:58.188Z,7.97
2019-04-11T16:11:32.958Z,8.07
2019-04-11T16:12:46.990Z,6.40
2019-04-11T16:14:22.016Z,6.67
2019-04-11T16:15:32.325Z,5.73
2019-04-11T16:16:57.467Z,6.57
2019-04-11T16:18:28.039Z,10.87
2019-04-11T16:19:39.742Z,11.00
2019-04-11T16:20:50.859Z,6.37
2019-04-11T16:22:05.119Z,6.40
2019-04-11T16:23:18.896Z,6.53
2019-04-11T16:24:30.781Z,11.50
2019-04-11T16:25:37.779Z,6.07
2019-04-11T16:26:54.904Z,7.57
2019-04-11T16:28:38.985Z,6.60
2019-04-11T16:29:52.347Z,6.73
2019-04-11T16:31:00.675Z,4.93
2019-04-11T16:32:12.370Z,6.50
2019-04-11T16:33:36.696Z,5.93
2019-04-11T16:35:02.290Z,8.30
2019-04-11T16:36:30.894Z,5.30